Language selection

Features

My Weather Profile Weather Topics  | 

Hudson - Hudson Bay: Past 24 Hour Conditions

 

Fort Severn Airport

05:00 AM EST 20 January 2020
Disclaimer

This table is a summary of hourly weather conditions for the past 24 hours.
Please note that these observations might not always be representative of weather conditions over their associated marine area.

Date / Time
(EST)
Wind(knots) Conditions Visibility(km) Pressure(kPa) Air tempC) Relative humidity(%) Dew pointC) Wind Chill
20 January 2020
5:00 W 13 gust 20 Mostly Cloudy 16 102.1 -17 71 -21 -27
4:00 W 13 gust 21 Cloudy 16 102.1 -16 73 -20 -26
3:00 W 14 gust 19 Cloudy 16 102.0 -16 73 -19 -26
2:00 W 16 gust 22 Cloudy 16 102.0 -15 73 -19 -26
1:00 WNW 14 gust 22 Mostly Cloudy 16 102.0 -16 74 -20 -27
0:00 W 10 gust 18 Mostly Cloudy 16 102.0 -17 77 -20 -26
19 January 2020
23:00 WNW 11 gust 17 Clear 16 102.0 -18 76 -21 -28
22:00 WNW 13 gust 21 Partly Cloudy 16 102.1 -18 76 -21 -28
21:00 WNW 13 gust 20 Mainly Clear 16 102.1 -18 77 -21 -29
20:00 W 11 gust 19 Mainly Clear 16 102.1 -18 77 -21 -28
19:00 W 12 gust 21 Clear 16 102.1 -18 76 -21 -28
18:00 W 13 gust 18 Clear 16 102.1 -18 75 -21 -28
17:00 WNW 11 gust 20 Mainly Clear 16 102.0 -17 74 -21 -27
16:00 WNW 10 gust 18 Cloudy 16 101.9 -16 74 -20 -25
15:00 WNW 13 gust 21 Cloudy 16 101.9 -16 74 -20 -26
14:00 W 16 gust 24 Cloudy 16 101.9 -17 73 -20 -28
13:00 W 12 gust 18 Mostly Cloudy 16 102.0 -18 75 -21 -28
12:00 W 13 gust 24 Sunny 16 102.0 -19 75 -22 -29
11:00 W 15 Mostly Cloudy 16 102.0 -20 78 -23 -32
10:00 W 11 gust 18 Partly Cloudy 16 102.1 -21 81 -23 -31
9:00 W 10 gust 15 Partly Cloudy 16 102.1 -22 82 -24 -32
8:00 W 13 gust 19 Mostly Cloudy 16 102.1 -22 83 -24 -33
7:00 W 13 gust 19 Cloudy 16 102.2 -22 83 -24 -33
6:00 W 11 gust 17 Partly Cloudy 16 102.2 -22 83 -24 -33
5:00 W 9 Mostly Cloudy 16 102.3 -23 83 -25 -33

Zoom-in to make a selection

Map of Hudson - Hudson Bay marine weather areas Arviat Airport Baker Lake Airport Chesterfield Inlet Airport Coral Harbour Airport Rankin Inlet Airport Sanikiluaq Airport Whale Cove Airport Cape Dorset Airport Iqaluit Airport Wager Bay Kimmirut Airport Churchill Airport Fort Severn Airport Peawanuck Airport Moosonee Airport Eastmain Airport La Grande Rivière Airport Waskaganish Airport Wemindji Airport Akulivik Airport Inukjuak Airport Ivujivik Airport Kuujjuarapik Airport Puvirnituq Airport Umiujaq Airport Aupaluk Airport Kangiqsujuaq Airport Kangirsuk Airport Kangiqsualujjuaq Airport Kuujjuaq Airport Quaqtaq Airport Salluit Airport Tasiujaq Airport Cape Kakkiviak
Legend:
buoy Buoy
land station Land Station

Hudson - Hudson Bay Area

Another Region

What we are doing

Date modified: